createdAt,value
2023-02-04T00:00:29.702Z,8.79
2023-02-04T00:02:57.508Z,8.81
2023-02-04T00:05:25.177Z,8.76
2023-02-04T00:07:52.808Z,8.73
2023-02-04T00:10:20.641Z,8.65
2023-02-04T00:12:48.224Z,8.56
2023-02-04T00:15:17.443Z,8.56
2023-02-04T00:17:45.035Z,8.45
2023-02-04T00:20:13.165Z,8.32
2023-02-04T00:22:40.743Z,8.31
2023-02-04T00:25:09.176Z,8.21
2023-02-04T00:27:36.777Z,8.13
2023-02-04T00:30:04.831Z,8.13
2023-02-04T00:32:34.138Z,8.10
2023-02-04T00:35:04.633Z,8.08
2023-02-04T00:37:32.873Z,8.00
2023-02-04T00:40:00.496Z,8.05
2023-02-04T00:42:28.140Z,8.13
2023-02-04T00:44:55.811Z,8.11
2023-02-04T00:47:23.470Z,8.06
2023-02-04T00:49:52.464Z,8.09
2023-02-04T00:52:20.112Z,8.06
2023-02-04T00:54:47.770Z,8.06
2023-02-04T00:57:15.694Z,8.08
2023-02-04T00:59:43.264Z,8.08
2023-02-04T01:02:10.847Z,8.06
2023-02-04T01:04:38.392Z,8.13
2023-02-04T01:07:07.379Z,8.07
2023-02-04T01:09:34.966Z,8.09
2023-02-04T01:12:02.558Z,8.09
2023-02-04T01:14:30.404Z,8.09
2023-02-04T01:16:58.080Z,7.90
2023-02-04T01:19:25.729Z,7.96
2023-02-04T01:21:53.344Z,7.88
2023-02-04T01:24:22.269Z,7.85
2023-02-04T01:26:49.844Z,7.93
2023-02-04T01:29:17.454Z,7.96
2023-02-04T01:31:45.262Z,8.05
2023-02-04T01:34:12.812Z,8.06
2023-02-04T01:36:40.344Z,7.92
2023-02-04T01:39:07.917Z,8.15
2023-02-04T01:41:36.895Z,7.94
2023-02-04T01:44:04.568Z,7.93
2023-02-04T01:46:34.292Z,7.83
2023-02-04T01:49:02.319Z,7.78
2023-02-04T01:51:32.018Z,7.66
2023-02-04T01:54:00.658Z,7.71
2023-02-04T01:56:31.166Z,7.38
2023-02-04T01:59:00.178Z,7.46
2023-02-04T02:01:36.796Z,7.40
2023-02-04T02:04:05.365Z,7.42
2023-02-04T02:06:33.278Z,7.48
2023-02-04T02:09:01.034Z,7.39
2023-02-04T02:11:29.504Z,7.35
2023-02-04T02:13:57.212Z,7.27
2023-02-04T02:16:26.224Z,7.44
2023-02-04T02:18:54.626Z,7.37
2023-02-04T02:21:33.163Z,7.42
2023-02-04T02:24:19.578Z,7.27
2023-02-04T02:26:47.196Z,7.23
2023-02-04T02:29:14.806Z,7.17
2023-02-04T02:31:42.588Z,7.17
2023-02-04T02:34:10.274Z,7.24
2023-02-04T02:36:38.074Z,7.16
2023-02-04T02:39:07.092Z,7.16
2023-02-04T02:41:35.195Z,6.99
2023-02-04T02:44:03.322Z,6.92
2023-02-04T02:46:30.923Z,7.03
2023-02-04T02:48:58.653Z,6.96
2023-02-04T02:51:26.260Z,6.83
2023-02-04T02:53:54.410Z,6.80
2023-02-04T02:56:23.408Z,6.68
2023-02-04T02:58:51.082Z,6.74
2023-02-04T03:01:19.033Z,6.79
2023-02-04T03:03:50.382Z,6.73
2023-02-04T03:06:21.356Z,6.77
2023-02-04T03:08:51.555Z,6.66
2023-02-04T03:11:19.247Z,6.62
2023-02-04T03:13:48.365Z,6.70
2023-02-04T03:16:16.083Z,6.72
2023-02-04T03:18:43.787Z,6.62
2023-02-04T03:21:14.316Z,6.63
2023-02-04T03:23:42.096Z,6.66
2023-02-04T03:26:09.708Z,6.74
2023-02-04T03:28:41.336Z,6.67
2023-02-04T03:31:10.501Z,6.77
2023-02-04T03:33:38.062Z,6.78
2023-02-04T03:36:08.417Z,6.66
2023-02-04T03:38:36.076Z,6.75
2023-02-04T03:41:03.844Z,6.77
2023-02-04T03:43:33.737Z,6.77
2023-02-04T03:46:01.865Z,6.70
2023-02-04T03:48:30.832Z,6.69
2023-02-04T03:50:58.407Z,6.68
2023-02-04T03:53:26.172Z,6.63
2023-02-04T03:55:53.738Z,6.64
2023-02-04T03:58:21.931Z,6.66
2023-02-04T04:00:50.091Z,6.66
2023-02-04T04:03:17.695Z,6.59
2023-02-04T04:05:46.587Z,6.72
2023-02-04T04:08:14.139Z,6.76
2023-02-04T04:10:42.072Z,6.69
2023-02-04T04:13:09.698Z,6.70
2023-02-04T04:15:37.245Z,6.70
2023-02-04T04:18:05.319Z,6.56
2023-02-04T04:20:33.183Z,6.59
2023-02-04T04:23:02.193Z,6.55
2023-02-04T04:25:29.710Z,6.60
2023-02-04T04:27:57.256Z,6.58
2023-02-04T04:30:24.886Z,6.63
2023-02-04T04:32:52.431Z,6.57
2023-02-04T04:35:20.093Z,6.46
2023-02-04T04:37:47.710Z,6.53
2023-02-04T04:40:17.119Z,6.57
2023-02-04T04:42:45.635Z,6.54
2023-02-04T04:45:14.345Z,6.54
2023-02-04T04:47:41.945Z,6.62
2023-02-04T04:50:10.310Z,6.56
2023-02-04T04:52:38.013Z,6.55
2023-02-04T04:55:06.592Z,6.55
2023-02-04T04:57:35.579Z,6.56
2023-02-04T05:00:03.189Z,6.55
2023-02-04T05:02:30.877Z,6.61
2023-02-04T05:04:58.761Z,6.60
2023-02-04T05:07:26.391Z,6.58
2023-02-04T05:09:53.943Z,6.57
2023-02-04T05:12:21.553Z,6.50
2023-02-04T05:14:50.447Z,6.49
2023-02-04T05:17:18.166Z,6.46
2023-02-04T05:19:45.714Z,6.55
2023-02-04T05:22:13.369Z,6.75
2023-02-04T05:24:40.948Z,6.57
2023-02-04T05:27:08.471Z,6.78
2023-02-04T05:29:36.014Z,6.81
2023-02-04T05:32:05.226Z,6.75
2023-02-04T05:34:32.827Z,6.73
2023-02-04T05:37:00.364Z,6.74
2023-02-04T05:39:29.239Z,6.65
2023-02-04T05:41:56.753Z,6.62
2023-02-04T05:44:25.794Z,6.66
2023-02-04T05:46:54.243Z,6.70
2023-02-04T05:49:23.793Z,6.58
2023-02-04T05:51:51.389Z,6.40
2023-02-04T05:54:20.518Z,6.33
2023-02-04T05:56:48.765Z,6.37
2023-02-04T05:59:16.307Z,6.38
2023-02-04T06:01:43.921Z,6.29
2023-02-04T06:04:11.532Z,6.34
2023-02-04T06:06:40.508Z,6.33
2023-02-04T06:09:08.086Z,6.23
2023-02-04T06:11:35.668Z,6.36
2023-02-04T06:14:03.668Z,6.23
2023-02-04T06:16:31.333Z,6.15
2023-02-04T06:18:58.932Z,6.18
2023-02-04T06:21:26.525Z,6.18
2023-02-04T06:23:55.520Z,6.24
2023-02-04T06:26:23.072Z,6.20
2023-02-04T06:28:50.624Z,6.18
2023-02-04T06:31:18.232Z,6.21
2023-02-04T06:33:46.309Z,6.18
2023-02-04T06:36:14.006Z,6.20
2023-02-04T06:38:41.675Z,6.16
2023-02-04T06:41:10.601Z,6.07
2023-02-04T06:43:38.137Z,6.05
2023-02-04T06:46:06.098Z,6.09
2023-02-04T06:48:33.680Z,6.16
2023-02-04T06:51:01.254Z,6.08
2023-02-04T06:53:28.990Z,6.12
2023-02-04T06:55:56.534Z,6.17
2023-02-04T06:58:25.494Z,6.18
2023-02-04T07:00:53.136Z,6.16
2023-02-04T07:03:20.734Z,6.12
2023-02-04T07:05:48.313Z,6.08
2023-02-04T07:08:15.859Z,6.14
2023-02-04T07:10:43.473Z,6.09
2023-02-04T07:13:11.110Z,6.05
2023-02-04T07:15:40.041Z,6.06
2023-02-04T07:18:07.703Z,6.08
2023-02-04T07:20:35.607Z,6.06
2023-02-04T07:23:03.375Z,6.13
2023-02-04T07:25:30.896Z,6.03
2023-02-04T07:27:59.356Z,6.03
2023-02-04T07:30:27.083Z,6.04
2023-02-04T07:32:56.060Z,6.00
2023-02-04T07:35:24.171Z,6.12
2023-02-04T07:37:51.859Z,6.11
2023-02-04T07:40:19.699Z,6.10
2023-02-04T07:42:47.360Z,6.10
2023-02-04T07:45:15.276Z,6.14
2023-02-04T07:47:42.901Z,6.15
2023-02-04T07:50:11.962Z,6.22
2023-02-04T07:52:39.676Z,6.30
2023-02-04T07:55:08.110Z,6.27
2023-02-04T07:57:36.091Z,6.27
2023-02-04T08:00:03.678Z,6.33
2023-02-04T08:02:31.256Z,6.29
2023-02-04T08:04:58.851Z,6.37
2023-02-04T08:07:27.755Z,6.36
2023-02-04T08:09:55.307Z,6.33
2023-02-04T08:12:22.938Z,6.31
2023-02-04T08:14:50.527Z,6.42
2023-02-04T08:17:18.107Z,6.48
2023-02-04T08:19:45.708Z,6.58
2023-02-04T08:22:13.298Z,6.59
2023-02-04T08:24:42.245Z,6.64
2023-02-04T08:27:10.558Z,6.64
2023-02-04T08:29:38.693Z,6.62
2023-02-04T08:32:07.426Z,6.58
2023-02-04T08:34:35.115Z,6.69
2023-02-04T08:37:02.755Z,6.65
2023-02-04T08:39:30.660Z,6.75
2023-02-04T08:41:59.882Z,6.76
2023-02-04T08:44:27.455Z,6.73
2023-02-04T08:46:55.104Z,6.82
2023-02-04T08:49:22.966Z,6.85
2023-02-04T08:51:50.580Z,6.87
2023-02-04T08:54:18.170Z,6.89
2023-02-04T08:56:45.920Z,6.87
2023-02-04T08:59:14.900Z,6.97
2023-02-04T09:01:42.587Z,7.02
2023-02-04T09:04:10.219Z,7.05
2023-02-04T09:06:38.149Z,7.00
2023-02-04T09:09:05.758Z,7.26
2023-02-04T09:11:33.354Z,7.45
2023-02-04T09:14:00.939Z,7.32
2023-02-04T09:16:30.255Z,7.44
2023-02-04T09:18:58.943Z,7.52
2023-02-04T09:21:27.066Z,7.54
2023-02-04T09:23:54.738Z,7.65
2023-02-04T09:26:22.579Z,7.64
2023-02-04T09:28:50.108Z,7.57
2023-02-04T09:31:17.831Z,7.61
2023-02-04T09:33:47.044Z,7.69
2023-02-04T09:36:14.625Z,8.08
2023-02-04T09:38:42.244Z,8.23
2023-02-04T09:41:13.243Z,8.16
2023-02-04T09:43:44.611Z,8.41
2023-02-04T09:46:21.075Z,8.44
2023-02-04T09:48:51.136Z,8.30
2023-02-04T09:51:21.680Z,7.88
2023-02-04T09:53:50.991Z,8.36
2023-02-04T09:56:19.232Z,8.33
2023-02-04T09:58:46.995Z,8.44
2023-02-04T10:01:16.921Z,8.61
2023-02-04T10:03:47.492Z,8.58
2023-02-04T10:06:18.375Z,8.81
2023-02-04T10:08:47.527Z,8.25
2023-02-04T10:11:16.313Z,8.50
2023-02-04T10:13:47.740Z,8.68
2023-02-04T10:16:18.028Z,8.67
2023-02-04T10:18:46.162Z,8.75
2023-02-04T10:21:18.705Z,8.50
2023-02-04T10:23:49.763Z,8.62
2023-02-04T10:26:18.354Z,8.36
2023-02-04T10:28:47.111Z,8.59
2023-02-04T10:31:33.870Z,8.41
2023-02-04T10:34:23.699Z,8.56
2023-02-04T10:36:55.350Z,8.60
2023-02-04T10:39:24.217Z,8.74
2023-02-04T10:41:53.416Z,8.99
2023-02-04T10:44:27.777Z,8.91
2023-02-04T10:47:00.748Z,8.65
2023-02-04T10:49:28.428Z,8.78
2023-02-04T10:51:57.942Z,8.79
2023-02-04T10:54:30.585Z,8.75
2023-02-04T10:56:59.728Z,9.02
2023-02-04T10:59:29.095Z,9.08
2023-02-04T11:01:58.566Z,8.45
2023-02-04T11:04:27.133Z,8.58
2023-02-04T11:06:55.314Z,8.68
2023-02-04T11:09:24.318Z,8.68
2023-02-04T11:11:52.646Z,8.53
2023-02-04T11:14:25.745Z,8.72
2023-02-04T11:16:54.647Z,9.04
2023-02-04T11:19:34.254Z,9.07
2023-02-04T11:22:21.531Z,9.39
2023-02-04T11:24:51.022Z,9.53
2023-02-04T11:27:25.018Z,8.91
2023-02-04T11:29:53.306Z,9.89
2023-02-04T11:32:37.781Z,10.28
2023-02-04T11:35:28.642Z,10.29
2023-02-04T11:37:56.830Z,9.97
2023-02-04T11:40:29.785Z,9.97
2023-02-04T11:43:22.453Z,10.41
2023-02-04T11:45:50.117Z,10.53
2023-02-04T11:48:20.755Z,11.51
2023-02-04T11:50:56.613Z,13.54
2023-02-04T11:53:26.453Z,13.78
2023-02-04T11:55:55.391Z,12.82
2023-02-04T11:58:25.959Z,14.36
2023-02-04T12:00:54.291Z,13.76
2023-02-04T12:03:25.016Z,12.54
2023-02-04T12:05:54.853Z,11.04
2023-02-04T12:08:28.469Z,11.73
2023-02-04T12:11:05.630Z,11.34
2023-02-04T12:13:33.742Z,10.61
2023-02-04T12:16:03.026Z,10.36
2023-02-04T12:18:31.806Z,10.20
2023-02-04T12:21:00.716Z,10.29
2023-02-04T12:23:30.038Z,10.15
2023-02-04T12:25:58.338Z,10.04
2023-02-04T12:28:28.970Z,10.40
2023-02-04T12:30:56.843Z,10.97
2023-02-04T12:33:24.461Z,12.21
2023-02-04T12:35:52.104Z,13.97
2023-02-04T12:38:20.673Z,13.91
2023-02-04T12:40:48.472Z,13.31
2023-02-04T12:43:16.110Z,14.08
2023-02-04T12:45:46.268Z,14.29
2023-02-04T12:48:15.050Z,13.95
2023-02-04T12:50:45.126Z,14.57
2023-02-04T12:53:12.930Z,14.85
2023-02-04T12:55:40.525Z,14.39
2023-02-04T12:58:08.070Z,14.21
2023-02-04T13:00:35.644Z,11.69
2023-02-04T13:03:05.217Z,12.32
2023-02-04T13:05:33.199Z,12.40
2023-02-04T13:08:00.997Z,11.04
2023-02-04T13:10:28.711Z,11.14
2023-02-04T13:12:56.386Z,10.45
2023-02-04T13:15:24.786Z,9.60
2023-02-04T13:17:52.388Z,10.37
2023-02-04T13:20:21.654Z,10.46
2023-02-04T13:22:49.492Z,10.48
2023-02-04T13:25:17.158Z,10.31
2023-02-04T13:27:44.783Z,10.60
2023-02-04T13:30:15.158Z,11.01
2023-02-04T13:32:43.496Z,12.20
2023-02-04T13:35:11.193Z,14.62
2023-02-04T13:37:40.203Z,16.01
2023-02-04T13:40:09.432Z,15.56
2023-02-04T13:42:37.000Z,15.90
2023-02-04T13:45:04.950Z,16.06
2023-02-04T13:47:32.561Z,16.53
2023-02-04T13:50:00.224Z,14.82
2023-02-04T13:52:27.766Z,14.76
2023-02-04T13:54:56.882Z,14.04
2023-02-04T13:57:24.436Z,12.36
2023-02-04T13:59:52.074Z,11.77
2023-02-04T14:02:21.180Z,10.89
2023-02-04T14:04:48.788Z,10.64
2023-02-04T14:07:16.336Z,9.87
2023-02-04T14:09:43.898Z,10.31
2023-02-04T14:12:13.216Z,9.70
2023-02-04T14:14:40.833Z,9.82
2023-02-04T14:17:08.372Z,9.78
2023-02-04T14:19:35.961Z,10.16
2023-02-04T14:22:03.843Z,10.08
2023-02-04T14:24:32.251Z,10.18
2023-02-04T14:27:01.159Z,10.38
2023-02-04T14:29:30.256Z,11.42
2023-02-04T14:31:57.929Z,12.32
2023-02-04T14:34:25.511Z,12.82
2023-02-04T14:36:53.053Z,13.89
2023-02-04T14:39:20.685Z,13.53
2023-02-04T14:41:48.251Z,12.13
2023-02-04T14:44:20.422Z,11.35
2023-02-04T14:46:49.765Z,11.24
2023-02-04T14:49:18.274Z,11.28
2023-02-04T14:51:45.869Z,11.26
2023-02-04T14:54:13.673Z,11.26
2023-02-04T14:56:41.357Z,11.09
2023-02-04T14:59:08.983Z,11.10
2023-02-04T15:01:36.737Z,11.02
2023-02-04T15:04:05.818Z,10.86
2023-02-04T15:06:33.355Z,10.60
2023-02-04T15:09:00.921Z,10.24
2023-02-04T15:11:28.481Z,10.73
2023-02-04T15:13:56.032Z,10.66
2023-02-04T15:16:23.977Z,10.54
2023-02-04T15:18:51.875Z,10.26
2023-02-04T15:21:21.061Z,10.04
2023-02-04T15:23:48.723Z,10.00
2023-02-04T15:26:16.395Z,9.80
2023-02-04T15:28:43.974Z,9.59
2023-02-04T15:31:12.247Z,9.56
2023-02-04T15:33:40.824Z,9.52
2023-02-04T15:36:08.931Z,9.43
2023-02-04T15:38:37.918Z,9.27
2023-02-04T15:41:05.907Z,9.63
2023-02-04T15:43:33.492Z,9.76
2023-02-04T15:46:01.132Z,9.74
2023-02-04T15:48:29.165Z,9.75
2023-02-04T15:50:56.773Z,9.74
2023-02-04T15:53:24.723Z,9.62
2023-02-04T15:55:53.758Z,9.21
2023-02-04T15:58:21.344Z,9.42
2023-02-04T16:00:48.922Z,9.47
2023-02-04T16:03:16.570Z,9.31
2023-02-04T16:05:44.159Z,9.25
2023-02-04T16:08:11.872Z,9.15
2023-02-04T16:10:39.498Z,9.18
2023-02-04T16:13:08.736Z,8.84
2023-02-04T16:15:37.204Z,8.62
2023-02-04T16:18:05.035Z,8.39
2023-02-04T16:20:32.890Z,8.08
2023-02-04T16:23:02.152Z,8.09
2023-02-04T16:25:29.733Z,7.83
2023-02-04T16:27:57.324Z,7.46
2023-02-04T16:30:26.368Z,7.25
2023-02-04T16:32:54.047Z,7.17
2023-02-04T16:35:21.722Z,7.06
2023-02-04T16:40:18.132Z,6.68
2023-02-04T16:42:45.724Z,6.59
2023-02-04T16:45:13.489Z,6.41
2023-02-04T16:47:42.517Z,6.29
2023-02-04T16:50:11.488Z,6.25
2023-02-04T16:52:38.991Z,6.22
2023-02-04T16:55:07.141Z,6.14
2023-02-04T16:57:34.689Z,6.00
2023-02-04T17:00:02.309Z,6.08
2023-02-04T17:02:29.962Z,6.03
2023-02-04T17:04:58.946Z,6.02
2023-02-04T17:07:26.485Z,6.00
2023-02-04T17:09:54.020Z,5.95
2023-02-04T17:12:21.587Z,5.83
2023-02-04T17:14:49.199Z,5.77
2023-02-04T17:17:18.173Z,5.72
2023-02-04T17:19:45.867Z,5.74
2023-02-04T17:22:15.064Z,5.63
2023-02-04T17:24:43.668Z,5.44
2023-02-04T17:27:11.801Z,5.47
2023-02-04T17:29:39.651Z,5.46
2023-02-04T17:32:08.598Z,5.34
2023-02-04T17:34:36.156Z,5.26
2023-02-04T17:37:03.761Z,5.20
2023-02-04T17:39:32.685Z,5.08
2023-02-04T17:42:00.223Z,4.97
2023-02-04T17:44:28.464Z,5.08
2023-02-04T17:46:57.368Z,5.02
2023-02-04T17:49:25.116Z,4.89
2023-02-04T17:51:52.669Z,4.81
2023-02-04T17:54:20.308Z,4.80
2023-02-04T17:56:49.286Z,4.79
2023-02-04T17:59:16.889Z,4.78
2023-02-04T18:01:44.817Z,4.71
2023-02-04T18:04:13.685Z,4.63
2023-02-04T18:06:41.890Z,4.59
2023-02-04T18:09:16.048Z,4.59
2023-02-04T18:11:44.241Z,4.54
2023-02-04T18:14:16.758Z,4.42
2023-02-04T18:16:45.908Z,4.36
2023-02-04T18:19:21.112Z,4.34
2023-02-04T18:21:51.146Z,4.30
2023-02-04T18:24:21.807Z,4.20
2023-02-04T18:26:51.641Z,4.20
2023-02-04T18:29:31.340Z,4.07
2023-02-04T18:32:01.714Z,4.01
2023-02-04T18:34:36.088Z,4.02
2023-02-04T18:37:23.239Z,4.00
2023-02-04T18:39:51.103Z,4.01
2023-02-04T18:42:25.631Z,3.94
2023-02-04T18:44:56.703Z,3.87
2023-02-04T18:47:32.467Z,3.89
2023-02-04T18:50:01.681Z,3.86
2023-02-04T18:52:37.215Z,3.77
2023-02-04T18:55:19.332Z,3.67
2023-02-04T18:57:46.967Z,3.75
2023-02-04T19:00:32.698Z,3.72
2023-02-04T19:03:05.359Z,3.76
2023-02-04T19:05:38.149Z,3.62
2023-02-04T19:08:23.583Z,3.77
2023-02-04T19:10:52.800Z,4.01
2023-02-04T19:13:23.135Z,4.27
2023-02-04T19:15:57.630Z,4.47
2023-02-04T19:18:28.096Z,4.62
2023-02-04T19:20:56.004Z,4.61
2023-02-04T19:23:25.471Z,4.27
2023-02-04T19:25:53.771Z,4.21
2023-02-04T19:28:28.997Z,4.11
2023-02-04T19:31:00.685Z,3.97
2023-02-04T19:33:33.817Z,3.88
2023-02-04T19:36:37.556Z,3.85
2023-02-04T19:39:17.539Z,3.77
2023-02-04T19:41:49.193Z,3.79
2023-02-04T19:44:37.831Z,3.64
2023-02-04T19:47:37.083Z,3.68
2023-02-04T19:50:22.796Z,3.65
2023-02-04T19:52:52.806Z,3.68
2023-02-04T19:55:29.844Z,3.58
2023-02-04T19:58:00.566Z,3.57
2023-02-04T20:00:46.513Z,3.54
2023-02-04T20:03:25.685Z,3.41
2023-02-04T20:05:53.739Z,3.41
2023-02-04T20:08:45.184Z,3.34
2023-02-04T20:11:35.609Z,3.34
2023-02-04T20:14:22.130Z,3.29
2023-02-04T20:16:52.672Z,3.38
2023-02-04T20:19:26.635Z,3.33
2023-02-04T20:22:05.398Z,3.28
2023-02-04T20:24:36.181Z,3.33
2023-02-04T20:27:11.977Z,3.17
2023-02-04T20:29:39.571Z,3.07
2023-02-04T20:32:18.233Z,3.05
2023-02-04T20:34:47.280Z,3.06
2023-02-04T20:37:23.508Z,3.00
2023-02-04T20:39:51.068Z,2.84
2023-02-04T20:42:35.175Z,2.80
2023-02-04T20:45:22.059Z,2.69
2023-02-04T20:47:53.007Z,2.66
2023-02-04T20:50:41.352Z,2.62
2023-02-04T20:53:32.966Z,2.57
2023-02-04T20:56:04.637Z,2.48
2023-02-04T20:58:37.826Z,2.47
2023-02-04T21:01:20.485Z,2.41
2023-02-04T21:03:50.257Z,2.35
2023-02-04T21:06:27.623Z,2.34
2023-02-04T21:08:57.618Z,2.23
2023-02-04T21:11:25.692Z,2.26
2023-02-04T21:13:55.019Z,2.29
2023-02-04T21:16:22.925Z,2.19
2023-02-04T21:18:50.785Z,2.21
2023-02-04T21:21:20.315Z,2.15
2023-02-04T21:23:49.633Z,2.08
2023-02-04T21:26:17.361Z,2.10
2023-02-04T21:28:45.341Z,2.06
2023-02-04T21:31:13.164Z,1.87
2023-02-04T21:33:40.891Z,1.86
2023-02-04T21:36:09.670Z,1.85
2023-02-04T21:38:37.618Z,1.73
2023-02-04T21:41:06.775Z,1.69
2023-02-04T21:43:34.339Z,1.65
2023-02-04T21:46:01.957Z,1.58
2023-02-04T21:48:29.616Z,1.65
2023-02-04T21:50:57.468Z,1.54
2023-02-04T21:53:25.241Z,1.56
2023-02-04T21:55:52.818Z,1.54
2023-02-04T21:58:21.802Z,1.50
2023-02-04T22:00:49.382Z,1.46
2023-02-04T22:03:17.431Z,1.47
2023-02-04T22:05:45.664Z,1.41
2023-02-04T22:08:13.461Z,1.32
2023-02-04T22:10:41.094Z,1.28
2023-02-04T22:13:26.446Z,1.31
2023-02-04T22:15:55.487Z,1.19
2023-02-04T22:18:23.199Z,1.40
2023-02-04T22:20:50.968Z,1.25
2023-02-04T22:23:18.566Z,1.23
2023-02-04T22:25:46.161Z,1.19
2023-02-04T22:28:14.100Z,1.12
2023-02-04T22:30:41.678Z,0.98
2023-02-04T22:33:11.668Z,1.03
2023-02-04T22:35:39.219Z,1.00
2023-02-04T22:38:06.846Z,0.97
2023-02-04T22:40:34.527Z,0.95
2023-02-04T22:43:02.102Z,0.93
2023-02-04T22:45:29.660Z,0.88
2023-02-04T22:47:57.274Z,0.89
2023-02-04T22:50:26.273Z,0.85
2023-02-04T22:52:54.003Z,0.95
2023-02-04T22:55:21.552Z,0.90
2023-02-04T22:57:49.131Z,0.77
2023-02-04T23:00:17.276Z,0.78
2023-02-04T23:02:45.053Z,0.77
2023-02-04T23:05:12.636Z,0.77
2023-02-04T23:07:41.578Z,0.80
2023-02-04T23:10:09.599Z,0.84
2023-02-04T23:12:37.250Z,0.78
2023-02-04T23:15:05.232Z,0.71
2023-02-04T23:17:32.881Z,0.71
2023-02-04T23:20:00.550Z,0.62
2023-02-04T23:22:28.312Z,0.55
2023-02-04T23:24:57.314Z,0.61
2023-02-04T23:27:25.353Z,0.59
2023-02-04T23:29:52.945Z,0.65
2023-02-04T23:32:20.566Z,0.52
2023-02-04T23:34:48.197Z,0.58
2023-02-04T23:37:15.853Z,0.55
2023-02-04T23:39:43.403Z,0.54
2023-02-04T23:42:12.595Z,0.47
2023-02-04T23:44:40.197Z,0.43
2023-02-04T23:47:08.175Z,0.35
2023-02-04T23:49:35.689Z,0.34
2023-02-04T23:52:03.572Z,0.37
2023-02-04T23:54:31.199Z,0.33
2023-02-04T23:56:58.810Z,0.37
2023-02-04T23:59:28.008Z,0.29
